sensor_id;sensor_type;location;lat;lon;timestamp;P1;durP1;ratioP1;P2;durP2;ratioP2
14171;SDS011;7165;52.388;4.928;2023-11-22T00:00:12;14.93;;;13.47;;
14171;SDS011;7165;52.388;4.928;2023-11-22T00:02:39;13.83;;;12.17;;
14171;SDS011;7165;52.388;4.928;2023-11-22T00:05:06;15.10;;;13.60;;
14171;SDS011;7165;52.388;4.928;2023-11-22T00:07:36;13.77;;;12.07;;
14171;SDS011;7165;52.388;4.928;2023-11-22T00:10:05;14.00;;;12.63;;
14171;SDS011;7165;52.388;4.928;2023-11-22T00:12:33;14.40;;;12.90;;
14171;SDS011;7165;52.388;4.928;2023-11-22T00:15:02;14.27;;;12.97;;
14171;SDS011;7165;52.388;4.928;2023-11-22T00:17:30;14.00;;;12.70;;
14171;SDS011;7165;52.388;4.928;2023-11-22T00:19:57;15.67;;;12.83;;
14171;SDS011;7165;52.388;4.928;2023-11-22T00:22:27;14.20;;;12.77;;
14171;SDS011;7165;52.388;4.928;2023-11-22T00:24:57;14.83;;;13.27;;
14171;SDS011;7165;52.388;4.928;2023-11-22T00:27:25;14.20;;;12.77;;
14171;SDS011;7165;52.388;4.928;2023-11-22T00:29:51;17.50;;;14.07;;
14171;SDS011;7165;52.388;4.928;2023-11-22T00:32:18;14.17;;;12.83;;
14171;SDS011;7165;52.388;4.928;2023-11-22T00:34:45;14.97;;;13.43;;
14171;SDS011;7165;52.388;4.928;2023-11-22T00:37:12;14.40;;;13.00;;
14171;SDS011;7165;52.388;4.928;2023-11-22T00:39:39;14.03;;;12.73;;
14171;SDS011;7165;52.388;4.928;2023-11-22T00:42:06;15.37;;;13.87;;
14171;SDS011;7165;52.388;4.928;2023-11-22T00:44:34;17.27;;;14.23;;
14171;SDS011;7165;52.388;4.928;2023-11-22T00:47:02;15.90;;;14.20;;
14171;SDS011;7165;52.388;4.928;2023-11-22T00:49:30;14.40;;;13.10;;
14171;SDS011;7165;52.388;4.928;2023-11-22T00:51:56;16.43;;;14.77;;
14171;SDS011;7165;52.388;4.928;2023-11-22T00:54:23;15.50;;;14.10;;
14171;SDS011;7165;52.388;4.928;2023-11-22T00:56:50;17.57;;;13.40;;
14171;SDS011;7165;52.388;4.928;2023-11-22T00:59:16;16.13;;;14.63;;
14171;SDS011;7165;52.388;4.928;2023-11-22T01:01:45;15.37;;;13.97;;
14171;SDS011;7165;52.388;4.928;2023-11-22T01:04:12;14.97;;;13.47;;
14171;SDS011;7165;52.388;4.928;2023-11-22T01:06:40;16.20;;;14.50;;
14171;SDS011;7165;52.388;4.928;2023-11-22T01:09:06;14.70;;;13.23;;
14171;SDS011;7165;52.388;4.928;2023-11-22T01:11:33;14.07;;;12.73;;
14171;SDS011;7165;52.388;4.928;2023-11-22T01:14:00;13.67;;;12.47;;
14171;SDS011;7165;52.388;4.928;2023-11-22T01:16:27;14.87;;;13.27;;
14171;SDS011;7165;52.388;4.928;2023-11-22T01:18:55;15.57;;;14.07;;
14171;SDS011;7165;52.388;4.928;2023-11-22T01:21:21;15.33;;;13.93;;
14171;SDS011;7165;52.388;4.928;2023-11-22T01:23:48;16.00;;;14.40;;
14171;SDS011;7165;52.388;4.928;2023-11-22T01:26:15;15.87;;;14.17;;
14171;SDS011;7165;52.388;4.928;2023-11-22T01:28:42;16.13;;;14.43;;
14171;SDS011;7165;52.388;4.928;2023-11-22T01:31:10;16.50;;;14.80;;
14171;SDS011;7165;52.388;4.928;2023-11-22T01:33:38;15.87;;;14.27;;
14171;SDS011;7165;52.388;4.928;2023-11-22T01:36:07;16.57;;;14.67;;
14171;SDS011;7165;52.388;4.928;2023-11-22T01:38:34;15.73;;;14.17;;
14171;SDS011;7165;52.388;4.928;2023-11-22T01:41:00;16.93;;;14.43;;
14171;SDS011;7165;52.388;4.928;2023-11-22T01:43:27;16.07;;;14.40;;
14171;SDS011;7165;52.388;4.928;2023-11-22T01:45:54;16.80;;;15.10;;
14171;SDS011;7165;52.388;4.928;2023-11-22T01:48:20;17.47;;;15.77;;
14171;SDS011;7165;52.388;4.928;2023-11-22T01:50:47;17.30;;;15.20;;
14171;SDS011;7165;52.388;4.928;2023-11-22T01:53:16;17.90;;;15.77;;
14171;SDS011;7165;52.388;4.928;2023-11-22T01:55:43;17.03;;;15.23;;
14171;SDS011;7165;52.388;4.928;2023-11-22T01:58:11;15.80;;;14.10;;
14171;SDS011;7165;52.388;4.928;2023-11-22T02:00:41;16.27;;;14.60;;
14171;SDS011;7165;52.388;4.928;2023-11-22T02:03:11;17.10;;;15.40;;
14171;SDS011;7165;52.388;4.928;2023-11-22T02:05:39;17.13;;;15.10;;
14171;SDS011;7165;52.388;4.928;2023-11-22T02:08:07;16.17;;;14.57;;
14171;SDS011;7165;52.388;4.928;2023-11-22T02:10:36;17.90;;;16.07;;
14171;SDS011;7165;52.388;4.928;2023-11-22T02:13:03;14.93;;;13.43;;
14171;SDS011;7165;52.388;4.928;2023-11-22T02:15:32;17.80;;;16.00;;
14171;SDS011;7165;52.388;4.928;2023-11-22T02:17:58;16.80;;;15.10;;
14171;SDS011;7165;52.388;4.928;2023-11-22T02:20:25;19.00;;;16.13;;
14171;SDS011;7165;52.388;4.928;2023-11-22T02:22:52;18.00;;;16.10;;
14171;SDS011;7165;52.388;4.928;2023-11-22T02:25:20;16.03;;;14.37;;
14171;SDS011;7165;52.388;4.928;2023-11-22T02:27:47;17.70;;;15.80;;
14171;SDS011;7165;52.388;4.928;2023-11-22T02:30:14;18.13;;;16.27;;
14171;SDS011;7165;52.388;4.928;2023-11-22T02:32:41;20.20;;;17.60;;
14171;SDS011;7165;52.388;4.928;2023-11-22T02:35:09;18.10;;;16.13;;
14171;SDS011;7165;52.388;4.928;2023-11-22T02:37:35;21.53;;;16.40;;
14171;SDS011;7165;52.388;4.928;2023-11-22T02:40:04;19.33;;;16.63;;
14171;SDS011;7165;52.388;4.928;2023-11-22T02:42:34;19.33;;;16.77;;
14171;SDS011;7165;52.388;4.928;2023-11-22T02:45:01;18.13;;;16.13;;
14171;SDS011;7165;52.388;4.928;2023-11-22T02:47:27;18.20;;;16.30;;
14171;SDS011;7165;52.388;4.928;2023-11-22T02:49:55;17.07;;;15.23;;
14171;SDS011;7165;52.388;4.928;2023-11-22T02:52:22;19.20;;;17.17;;
14171;SDS011;7165;52.388;4.928;2023-11-22T02:54:51;18.77;;;15.90;;
14171;SDS011;7165;52.388;4.928;2023-11-22T02:57:18;18.67;;;16.83;;
14171;SDS011;7165;52.388;4.928;2023-11-22T02:59:46;20.43;;;17.37;;
14171;SDS011;7165;52.388;4.928;2023-11-22T03:02:13;21.67;;;17.20;;
14171;SDS011;7165;52.388;4.928;2023-11-22T03:04:41;18.73;;;16.73;;
14171;SDS011;7165;52.388;4.928;2023-11-22T03:07:08;18.30;;;16.30;;
14171;SDS011;7165;52.388;4.928;2023-11-22T03:09:35;18.87;;;16.30;;
14171;SDS011;7165;52.388;4.928;2023-11-22T03:12:02;19.90;;;17.63;;
14171;SDS011;7165;52.388;4.928;2023-11-22T03:14:28;19.23;;;16.80;;
14171;SDS011;7165;52.388;4.928;2023-11-22T03:16:56;20.03;;;16.47;;
14171;SDS011;7165;52.388;4.928;2023-11-22T03:19:23;18.43;;;16.60;;
14171;SDS011;7165;52.388;4.928;2023-11-22T03:21:50;19.63;;;16.40;;
14171;SDS011;7165;52.388;4.928;2023-11-22T03:24:17;20.57;;;18.23;;
14171;SDS011;7165;52.388;4.928;2023-11-22T03:26:43;19.30;;;17.30;;
14171;SDS011;7165;52.388;4.928;2023-11-22T03:29:10;23.17;;;18.47;;
14171;SDS011;7165;52.388;4.928;2023-11-22T03:31:37;22.80;;;19.13;;
14171;SDS011;7165;52.388;4.928;2023-11-22T03:34:06;21.50;;;17.87;;
14171;SDS011;7165;52.388;4.928;2023-11-22T03:36:32;19.77;;;17.73;;
14171;SDS011;7165;52.388;4.928;2023-11-22T03:38:59;19.33;;;16.83;;
14171;SDS011;7165;52.388;4.928;2023-11-22T03:41:26;21.30;;;18.17;;
14171;SDS011;7165;52.388;4.928;2023-11-22T03:43:52;28.10;;;21.00;;
14171;SDS011;7165;52.388;4.928;2023-11-22T03:46:19;21.30;;;18.30;;
14171;SDS011;7165;52.388;4.928;2023-11-22T03:48:45;22.33;;;19.83;;
14171;SDS011;7165;52.388;4.928;2023-11-22T03:51:13;25.33;;;21.13;;
14171;SDS011;7165;52.388;4.928;2023-11-22T03:53:41;29.60;;;23.60;;
14171;SDS011;7165;52.388;4.928;2023-11-22T03:56:08;24.87;;;19.67;;
14171;SDS011;7165;52.388;4.928;2023-11-22T03:58:34;21.03;;;18.80;;
14171;SDS011;7165;52.388;4.928;2023-11-22T04:01:01;29.07;;;22.07;;
14171;SDS011;7165;52.388;4.928;2023-11-22T04:03:28;22.00;;;19.50;;
14171;SDS011;7165;52.388;4.928;2023-11-22T04:05:54;23.73;;;20.20;;
14171;SDS011;7165;52.388;4.928;2023-11-22T04:08:23;23.07;;;20.67;;
14171;SDS011;7165;52.388;4.928;2023-11-22T04:10:50;25.23;;;20.27;;
14171;SDS011;7165;52.388;4.928;2023-11-22T04:13:17;22.70;;;19.53;;
14171;SDS011;7165;52.388;4.928;2023-11-22T04:15:43;23.77;;;19.53;;
14171;SDS011;7165;52.388;4.928;2023-11-22T04:18:10;24.43;;;19.90;;
14171;SDS011;7165;52.388;4.928;2023-11-22T04:20:37;23.60;;;20.10;;
14171;SDS011;7165;52.388;4.928;2023-11-22T04:23:06;31.00;;;22.00;;
14171;SDS011;7165;52.388;4.928;2023-11-22T04:25:37;22.40;;;19.73;;
14171;SDS011;7165;52.388;4.928;2023-11-22T04:28:04;24.13;;;19.40;;
14171;SDS011;7165;52.388;4.928;2023-11-22T04:30:33;26.93;;;19.87;;
14171;SDS011;7165;52.388;4.928;2023-11-22T04:33:00;27.60;;;21.23;;
14171;SDS011;7165;52.388;4.928;2023-11-22T04:35:27;28.73;;;21.17;;
14171;SDS011;7165;52.388;4.928;2023-11-22T04:37:54;25.40;;;21.80;;
14171;SDS011;7165;52.388;4.928;2023-11-22T04:40:20;26.93;;;21.67;;
14171;SDS011;7165;52.388;4.928;2023-11-22T04:42:48;28.07;;;22.43;;
14171;SDS011;7165;52.388;4.928;2023-11-22T04:45:15;27.20;;;22.10;;
14171;SDS011;7165;52.388;4.928;2023-11-22T04:47:42;27.40;;;22.47;;
14171;SDS011;7165;52.388;4.928;2023-11-22T04:50:09;27.47;;;21.67;;
14171;SDS011;7165;52.388;4.928;2023-11-22T04:52:37;30.13;;;24.00;;
14171;SDS011;7165;52.388;4.928;2023-11-22T04:55:04;30.10;;;21.70;;
14171;SDS011;7165;52.388;4.928;2023-11-22T04:57:31;27.00;;;22.33;;
14171;SDS011;7165;52.388;4.928;2023-11-22T04:59:59;26.63;;;20.90;;
14171;SDS011;7165;52.388;4.928;2023-11-22T05:02:28;25.73;;;20.90;;
14171;SDS011;7165;52.388;4.928;2023-11-22T05:04:55;26.27;;;19.27;;
14171;SDS011;7165;52.388;4.928;2023-11-22T05:07:23;23.50;;;19.97;;
14171;SDS011;7165;52.388;4.928;2023-11-22T05:09:49;24.17;;;20.37;;
14171;SDS011;7165;52.388;4.928;2023-11-22T05:12:16;25.97;;;20.63;;
14171;SDS011;7165;52.388;4.928;2023-11-22T05:14:43;23.93;;;21.00;;
14171;SDS011;7165;52.388;4.928;2023-11-22T05:17:11;23.63;;;20.30;;
14171;SDS011;7165;52.388;4.928;2023-11-22T05:19:38;22.10;;;19.73;;
14171;SDS011;7165;52.388;4.928;2023-11-22T05:22:05;25.23;;;19.97;;
14171;SDS011;7165;52.388;4.928;2023-11-22T05:24:32;23.33;;;20.83;;
14171;SDS011;7165;52.388;4.928;2023-11-22T05:26:59;22.93;;;17.83;;
14171;SDS011;7165;52.388;4.928;2023-11-22T05:29:27;23.63;;;18.80;;
14171;SDS011;7165;52.388;4.928;2023-11-22T05:31:53;19.93;;;17.10;;
14171;SDS011;7165;52.388;4.928;2023-11-22T05:34:21;21.57;;;18.63;;
14171;SDS011;7165;52.388;4.928;2023-11-22T05:36:48;21.37;;;19.03;;
14171;SDS011;7165;52.388;4.928;2023-11-22T05:39:14;22.67;;;19.20;;
14171;SDS011;7165;52.388;4.928;2023-11-22T05:41:42;20.47;;;18.37;;
14171;SDS011;7165;52.388;4.928;2023-11-22T05:44:09;21.10;;;17.37;;
14171;SDS011;7165;52.388;4.928;2023-11-22T05:46:36;19.43;;;17.37;;
14171;SDS011;7165;52.388;4.928;2023-11-22T05:49:03;19.07;;;17.00;;
14171;SDS011;7165;52.388;4.928;2023-11-22T05:51:32;18.67;;;16.47;;
14171;SDS011;7165;52.388;4.928;2023-11-22T05:53:58;19.87;;;17.77;;
14171;SDS011;7165;52.388;4.928;2023-11-22T05:56:25;17.93;;;16.03;;
14171;SDS011;7165;52.388;4.928;2023-11-22T05:58:52;19.80;;;16.47;;
14171;SDS011;7165;52.388;4.928;2023-11-22T06:01:19;24.70;;;17.63;;
14171;SDS011;7165;52.388;4.928;2023-11-22T06:03:45;17.77;;;14.97;;
14171;SDS011;7165;52.388;4.928;2023-11-22T06:06:13;19.63;;;17.63;;
14171;SDS011;7165;52.388;4.928;2023-11-22T06:08:41;18.17;;;16.13;;
14171;SDS011;7165;52.388;4.928;2023-11-22T06:11:08;18.27;;;16.13;;
14171;SDS011;7165;52.388;4.928;2023-11-22T06:13:35;19.63;;;16.07;;
14171;SDS011;7165;52.388;4.928;2023-11-22T06:16:02;16.93;;;15.17;;
14171;SDS011;7165;52.388;4.928;2023-11-22T06:18:28;17.47;;;15.53;;
14171;SDS011;7165;52.388;4.928;2023-11-22T06:20:55;18.03;;;15.40;;
14171;SDS011;7165;52.388;4.928;2023-11-22T06:23:22;16.93;;;15.23;;
14171;SDS011;7165;52.388;4.928;2023-11-22T06:25:50;22.00;;;16.90;;
14171;SDS011;7165;52.388;4.928;2023-11-22T06:28:17;18.57;;;15.77;;
14171;SDS011;7165;52.388;4.928;2023-11-22T06:30:43;19.43;;;15.53;;
14171;SDS011;7165;52.388;4.928;2023-11-22T06:33:10;18.90;;;15.63;;
14171;SDS011;7165;52.388;4.928;2023-11-22T06:35:37;18.50;;;16.50;;
14171;SDS011;7165;52.388;4.928;2023-11-22T06:38:03;18.27;;;16.00;;
14171;SDS011;7165;52.388;4.928;2023-11-22T06:40:30;17.40;;;15.60;;
14171;SDS011;7165;52.388;4.928;2023-11-22T06:42:58;17.90;;;15.63;;
14171;SDS011;7165;52.388;4.928;2023-11-22T06:45:25;18.97;;;16.10;;
14171;SDS011;7165;52.388;4.928;2023-11-22T06:47:51;18.53;;;16.30;;
14171;SDS011;7165;52.388;4.928;2023-11-22T06:50:18;16.67;;;14.87;;
14171;SDS011;7165;52.388;4.928;2023-11-22T06:52:45;19.80;;;15.83;;
14171;SDS011;7165;52.388;4.928;2023-11-22T06:55:14;16.80;;;15.07;;
14171;SDS011;7165;52.388;4.928;2023-11-22T06:57:42;19.63;;;16.67;;
14171;SDS011;7165;52.388;4.928;2023-11-22T07:00:11;17.00;;;14.90;;
14171;SDS011;7165;52.388;4.928;2023-11-22T07:02:38;20.00;;;16.53;;
14171;SDS011;7165;52.388;4.928;2023-11-22T07:05:05;18.33;;;16.30;;
14171;SDS011;7165;52.388;4.928;2023-11-22T07:07:36;17.97;;;14.53;;
14171;SDS011;7165;52.388;4.928;2023-11-22T07:10:04;18.43;;;16.40;;
14171;SDS011;7165;52.388;4.928;2023-11-22T07:12:31;18.10;;;16.03;;
14171;SDS011;7165;52.388;4.928;2023-11-22T07:14:59;21.27;;;17.27;;
14171;SDS011;7165;52.388;4.928;2023-11-22T07:17:28;18.00;;;16.10;;
14171;SDS011;7165;52.388;4.928;2023-11-22T07:19:55;20.57;;;14.87;;
14171;SDS011;7165;52.388;4.928;2023-11-22T07:22:22;23.13;;;17.93;;
14171;SDS011;7165;52.388;4.928;2023-11-22T07:24:49;25.03;;;16.87;;
14171;SDS011;7165;52.388;4.928;2023-11-22T07:27:16;18.57;;;16.37;;
14171;SDS011;7165;52.388;4.928;2023-11-22T07:29:44;17.50;;;15.50;;
14171;SDS011;7165;52.388;4.928;2023-11-22T07:32:11;17.43;;;15.50;;
14171;SDS011;7165;52.388;4.928;2023-11-22T07:34:40;19.50;;;16.33;;
14171;SDS011;7165;52.388;4.928;2023-11-22T07:37:07;19.93;;;17.03;;
14171;SDS011;7165;52.388;4.928;2023-11-22T07:39:34;19.83;;;17.63;;
14171;SDS011;7165;52.388;4.928;2023-11-22T07:42:09;18.50;;;16.43;;
14171;SDS011;7165;52.388;4.928;2023-11-22T07:44:36;21.70;;;18.27;;
14171;SDS011;7165;52.388;4.928;2023-11-22T07:47:03;18.40;;;16.33;;
14171;SDS011;7165;52.388;4.928;2023-11-22T07:49:32;20.57;;;17.10;;
14171;SDS011;7165;52.388;4.928;2023-11-22T07:52:03;19.73;;;16.77;;
14171;SDS011;7165;52.388;4.928;2023-11-22T07:54:30;22.20;;;18.30;;
14171;SDS011;7165;52.388;4.928;2023-11-22T07:56:57;20.67;;;18.47;;
14171;SDS011;7165;52.388;4.928;2023-11-22T07:59:24;22.23;;;18.47;;
14171;SDS011;7165;52.388;4.928;2023-11-22T08:01:50;21.47;;;17.77;;
14171;SDS011;7165;52.388;4.928;2023-11-22T08:04:18;22.37;;;18.23;;
14171;SDS011;7165;52.388;4.928;2023-11-22T08:06:45;21.93;;;18.17;;
14171;SDS011;7165;52.388;4.928;2023-11-22T08:09:14;19.63;;;17.53;;
14171;SDS011;7165;52.388;4.928;2023-11-22T08:11:41;22.87;;;17.83;;
14171;SDS011;7165;52.388;4.928;2023-11-22T08:14:08;20.97;;;18.03;;
14171;SDS011;7165;52.388;4.928;2023-11-22T08:16:34;21.07;;;17.50;;
14171;SDS011;7165;52.388;4.928;2023-11-22T08:19:04;20.73;;;16.63;;
14171;SDS011;7165;52.388;4.928;2023-11-22T08:21:32;18.60;;;16.80;;
14171;SDS011;7165;52.388;4.928;2023-11-22T08:23:59;22.17;;;18.00;;
14171;SDS011;7165;52.388;4.928;2023-11-22T08:26:27;22.87;;;18.43;;
14171;SDS011;7165;52.388;4.928;2023-11-22T08:28:54;22.10;;;17.20;;
14171;SDS011;7165;52.388;4.928;2023-11-22T08:31:21;20.60;;;18.43;;
14171;SDS011;7165;52.388;4.928;2023-11-22T08:33:47;19.43;;;17.30;;
14171;SDS011;7165;52.388;4.928;2023-11-22T08:36:14;19.97;;;17.70;;
14171;SDS011;7165;52.388;4.928;2023-11-22T08:38:41;24.03;;;17.57;;
14171;SDS011;7165;52.388;4.928;2023-11-22T08:41:08;20.20;;;17.03;;
14171;SDS011;7165;52.388;4.928;2023-11-22T08:43:39;21.20;;;18.47;;
14171;SDS011;7165;52.388;4.928;2023-11-22T08:46:06;19.60;;;17.43;;
14171;SDS011;7165;52.388;4.928;2023-11-22T08:48:33;24.20;;;19.07;;
14171;SDS011;7165;52.388;4.928;2023-11-22T08:51:00;20.90;;;18.10;;
14171;SDS011;7165;52.388;4.928;2023-11-22T08:53:29;20.97;;;17.77;;
14171;SDS011;7165;52.388;4.928;2023-11-22T08:55:55;18.73;;;16.67;;
14171;SDS011;7165;52.388;4.928;2023-11-22T08:58:22;21.83;;;18.33;;
14171;SDS011;7165;52.388;4.928;2023-11-22T09:00:50;19.83;;;17.67;;
14171;SDS011;7165;52.388;4.928;2023-11-22T09:03:18;20.83;;;16.83;;
14171;SDS011;7165;52.388;4.928;2023-11-22T09:05:45;20.87;;;18.67;;
14171;SDS011;7165;52.388;4.928;2023-11-22T09:08:12;21.20;;;17.20;;
14171;SDS011;7165;52.388;4.928;2023-11-22T09:10:40;19.40;;;17.30;;
14171;SDS011;7165;52.388;4.928;2023-11-22T09:13:07;19.27;;;16.87;;
14171;SDS011;7165;52.388;4.928;2023-11-22T09:15:34;17.63;;;15.83;;
14171;SDS011;7165;52.388;4.928;2023-11-22T09:18:02;19.07;;;17.07;;
14171;SDS011;7165;52.388;4.928;2023-11-22T09:20:29;19.77;;;17.10;;
14171;SDS011;7165;52.388;4.928;2023-11-22T09:22:56;18.17;;;16.27;;
14171;SDS011;7165;52.388;4.928;2023-11-22T09:25:23;18.67;;;16.60;;
14171;SDS011;7165;52.388;4.928;2023-11-22T09:27:51;17.63;;;15.83;;
14171;SDS011;7165;52.388;4.928;2023-11-22T09:30:20;19.43;;;17.30;;
14171;SDS011;7165;52.388;4.928;2023-11-22T09:32:59;22.67;;;18.30;;
14171;SDS011;7165;52.388;4.928;2023-11-22T09:35:27;18.17;;;16.30;;
14171;SDS011;7165;52.388;4.928;2023-11-22T09:37:56;17.30;;;15.50;;
14171;SDS011;7165;52.388;4.928;2023-11-22T09:40:23;23.43;;;17.67;;
14171;SDS011;7165;52.388;4.928;2023-11-22T09:42:49;18.83;;;16.87;;
14171;SDS011;7165;52.388;4.928;2023-11-22T09:45:20;18.57;;;16.63;;
14171;SDS011;7165;52.388;4.928;2023-11-22T09:47:46;17.60;;;15.80;;
14171;SDS011;7165;52.388;4.928;2023-11-22T09:50:14;17.77;;;15.57;;
14171;SDS011;7165;52.388;4.928;2023-11-22T09:52:47;18.47;;;16.40;;
14171;SDS011;7165;52.388;4.928;2023-11-22T09:55:17;18.73;;;16.83;;
14171;SDS011;7165;52.388;4.928;2023-11-22T09:57:47;18.83;;;16.03;;
14171;SDS011;7165;52.388;4.928;2023-11-22T10:00:14;19.07;;;17.07;;
14171;SDS011;7165;52.388;4.928;2023-11-22T10:02:43;19.55;;;17.35;;
14171;SDS011;7165;52.388;4.928;2023-11-22T10:05:10;18.30;;;16.37;;
14171;SDS011;7165;52.388;4.928;2023-11-22T10:07:37;18.27;;;16.40;;
14171;SDS011;7165;52.388;4.928;2023-11-22T10:10:06;18.13;;;16.33;;
14171;SDS011;7165;52.388;4.928;2023-11-22T10:12:36;18.77;;;16.87;;
14171;SDS011;7165;52.388;4.928;2023-11-22T10:15:11;18.93;;;16.93;;
14171;SDS011;7165;52.388;4.928;2023-11-22T10:17:39;17.55;;;15.70;;
14171;SDS011;7165;52.388;4.928;2023-11-22T10:20:06;19.08;;;17.08;;
14171;SDS011;7165;52.388;4.928;2023-11-22T10:22:45;18.90;;;16.88;;
14171;SDS011;7165;52.388;4.928;2023-11-22T10:25:14;17.38;;;15.77;;
14171;SDS011;7165;52.388;4.928;2023-11-22T10:27:43;19.63;;;17.52;;
14171;SDS011;7165;52.388;4.928;2023-11-22T10:30:11;19.02;;;17.13;;
14171;SDS011;7165;52.388;4.928;2023-11-22T10:32:39;19.35;;;17.45;;
14171;SDS011;7165;52.388;4.928;2023-11-22T10:35:07;19.95;;;17.95;;
14171;SDS011;7165;52.388;4.928;2023-11-22T10:37:34;18.60;;;16.80;;
14171;SDS011;7165;52.388;4.928;2023-11-22T10:40:01;18.50;;;16.45;;
14171;SDS011;7165;52.388;4.928;2023-11-22T10:42:31;18.58;;;16.88;;
14171;SDS011;7165;52.388;4.928;2023-11-22T10:45:00;18.48;;;16.40;;
14171;SDS011;7165;52.388;4.928;2023-11-22T10:47:29;19.88;;;17.77;;
14171;SDS011;7165;52.388;4.928;2023-11-22T10:49:56;18.55;;;16.25;;
14171;SDS011;7165;52.388;4.928;2023-11-22T10:52:26;19.30;;;16.65;;
14171;SDS011;7165;52.388;4.928;2023-11-22T10:54:56;18.40;;;16.55;;
14171;SDS011;7165;52.388;4.928;2023-11-22T10:57:27;17.85;;;15.95;;
14171;SDS011;7165;52.388;4.928;2023-11-22T11:00:03;17.63;;;15.93;;
14171;SDS011;7165;52.388;4.928;2023-11-22T11:02:33;16.83;;;15.13;;
14171;SDS011;7165;52.388;4.928;2023-11-22T11:05:07;17.13;;;15.53;;
14171;SDS011;7165;52.388;4.928;2023-11-22T11:07:42;16.25;;;14.63;;
14171;SDS011;7165;52.388;4.928;2023-11-22T11:10:13;18.55;;;16.67;;
14171;SDS011;7165;52.388;4.928;2023-11-22T11:12:42;18.35;;;16.63;;
14171;SDS011;7165;52.388;4.928;2023-11-22T11:15:10;18.85;;;17.00;;
14171;SDS011;7165;52.388;4.928;2023-11-22T11:17:37;19.25;;;17.45;;
14171;SDS011;7165;52.388;4.928;2023-11-22T11:20:05;21.00;;;18.80;;
14171;SDS011;7165;52.388;4.928;2023-11-22T11:22:32;18.00;;;16.30;;
14171;SDS011;7165;52.388;4.928;2023-11-22T11:25:00;18.20;;;16.43;;
14171;SDS011;7165;52.388;4.928;2023-11-22T11:27:32;19.00;;;17.07;;
14171;SDS011;7165;52.388;4.928;2023-11-22T11:30:01;18.40;;;16.70;;
14171;SDS011;7165;52.388;4.928;2023-11-22T11:33:09;19.60;;;17.60;;
14171;SDS011;7165;52.388;4.928;2023-11-22T11:35:37;20.10;;;18.17;;
14171;SDS011;7165;52.388;4.928;2023-11-22T11:38:04;20.67;;;17.35;;
14171;SDS011;7165;52.388;4.928;2023-11-22T11:40:34;18.75;;;16.88;;
14171;SDS011;7165;52.388;4.928;2023-11-22T11:43:02;17.83;;;16.02;;
14171;SDS011;7165;52.388;4.928;2023-11-22T11:45:31;18.35;;;16.48;;
14171;SDS011;7165;52.388;4.928;2023-11-22T11:48:02;18.33;;;16.52;;
14171;SDS011;7165;52.388;4.928;2023-11-22T11:50:29;18.55;;;16.75;;
14171;SDS011;7165;52.388;4.928;2023-11-22T11:52:56;18.40;;;16.20;;
14171;SDS011;7165;52.388;4.928;2023-11-22T11:55:23;17.48;;;15.77;;
14171;SDS011;7165;52.388;4.928;2023-11-22T11:57:53;17.77;;;15.93;;
14171;SDS011;7165;52.388;4.928;2023-11-22T12:00:20;17.58;;;15.77;;
14171;SDS011;7165;52.388;4.928;2023-11-22T12:02:50;16.38;;;14.73;;
14171;SDS011;7165;52.388;4.928;2023-11-22T12:05:18;17.30;;;15.50;;
14171;SDS011;7165;52.388;4.928;2023-11-22T12:07:45;18.25;;;16.40;;
14171;SDS011;7165;52.388;4.928;2023-11-22T12:10:12;18.00;;;16.15;;
14171;SDS011;7165;52.388;4.928;2023-11-22T12:12:39;17.15;;;15.38;;
14171;SDS011;7165;52.388;4.928;2023-11-22T12:15:09;16.88;;;15.20;;
14171;SDS011;7165;52.388;4.928;2023-11-22T12:17:36;17.02;;;15.35;;
14171;SDS011;7165;52.388;4.928;2023-11-22T12:20:11;16.63;;;15.02;;
14171;SDS011;7165;52.388;4.928;2023-11-22T12:22:38;17.83;;;16.23;;
14171;SDS011;7165;52.388;4.928;2023-11-22T12:25:07;17.67;;;15.88;;
14171;SDS011;7165;52.388;4.928;2023-11-22T12:27:38;16.67;;;15.20;;
14171;SDS011;7165;52.388;4.928;2023-11-22T12:30:06;17.60;;;15.75;;
14171;SDS011;7165;52.388;4.928;2023-11-22T12:32:34;16.60;;;15.02;;
14171;SDS011;7165;52.388;4.928;2023-11-22T12:35:04;15.43;;;13.93;;
14171;SDS011;7165;52.388;4.928;2023-11-22T12:37:33;17.08;;;15.38;;
14171;SDS011;7165;52.388;4.928;2023-11-22T12:40:06;17.40;;;15.70;;
14171;SDS011;7165;52.388;4.928;2023-11-22T12:42:45;16.65;;;14.93;;
14171;SDS011;7165;52.388;4.928;2023-11-22T12:45:17;16.95;;;15.20;;
14171;SDS011;7165;52.388;4.928;2023-11-22T12:47:45;18.67;;;16.70;;
14171;SDS011;7165;52.388;4.928;2023-11-22T12:52:59;17.25;;;15.55;;
14171;SDS011;7165;52.388;4.928;2023-11-22T12:55:33;19.23;;;17.45;;
14171;SDS011;7165;52.388;4.928;2023-11-22T12:58:00;19.63;;;17.60;;
14171;SDS011;7165;52.388;4.928;2023-11-22T13:00:28;19.38;;;17.52;;
14171;SDS011;7165;52.388;4.928;2023-11-22T13:02:55;18.98;;;16.95;;
14171;SDS011;7165;52.388;4.928;2023-11-22T13:05:22;19.67;;;17.77;;
14171;SDS011;7165;52.388;4.928;2023-11-22T13:07:50;19.23;;;17.33;;
14171;SDS011;7165;52.388;4.928;2023-11-22T13:10:18;19.75;;;17.67;;
14171;SDS011;7165;52.388;4.928;2023-11-22T13:12:50;19.70;;;17.77;;
14171;SDS011;7165;52.388;4.928;2023-11-22T13:15:17;19.88;;;17.98;;
14171;SDS011;7165;52.388;4.928;2023-11-22T13:17:45;19.98;;;17.75;;
14171;SDS011;7165;52.388;4.928;2023-11-22T13:20:12;19.52;;;17.42;;
14171;SDS011;7165;52.388;4.928;2023-11-22T13:22:40;18.80;;;16.85;;
14171;SDS011;7165;52.388;4.928;2023-11-22T13:25:07;21.58;;;19.02;;
14171;SDS011;7165;52.388;4.928;2023-11-22T13:27:36;19.67;;;17.70;;
14171;SDS011;7165;52.388;4.928;2023-11-22T13:30:03;21.10;;;19.00;;
14171;SDS011;7165;52.388;4.928;2023-11-22T13:32:30;20.13;;;17.98;;
14171;SDS011;7165;52.388;4.928;2023-11-22T13:34:57;20.08;;;18.00;;
14171;SDS011;7165;52.388;4.928;2023-11-22T13:37:24;19.20;;;17.40;;
14171;SDS011;7165;52.388;4.928;2023-11-22T13:39:51;20.63;;;18.52;;
14171;SDS011;7165;52.388;4.928;2023-11-22T13:42:17;21.60;;;19.30;;
14171;SDS011;7165;52.388;4.928;2023-11-22T13:44:45;20.25;;;18.25;;
14171;SDS011;7165;52.388;4.928;2023-11-22T13:47:12;20.25;;;18.20;;
14171;SDS011;7165;52.388;4.928;2023-11-22T13:49:39;19.80;;;17.77;;
14171;SDS011;7165;52.388;4.928;2023-11-22T13:52:07;19.88;;;17.90;;
14171;SDS011;7165;52.388;4.928;2023-11-22T13:54:34;20.38;;;18.27;;
14171;SDS011;7165;52.388;4.928;2023-11-22T13:57:04;17.02;;;15.32;;
14171;SDS011;7165;52.388;4.928;2023-11-22T13:59:30;18.88;;;17.00;;
14171;SDS011;7165;52.388;4.928;2023-11-22T14:01:58;18.90;;;16.33;;
14171;SDS011;7165;52.388;4.928;2023-11-22T14:04:25;19.08;;;17.17;;
14171;SDS011;7165;52.388;4.928;2023-11-22T14:06:52;19.50;;;17.50;;
14171;SDS011;7165;52.388;4.928;2023-11-22T14:09:19;18.95;;;16.60;;
14171;SDS011;7165;52.388;4.928;2023-11-22T14:11:46;17.80;;;16.02;;
14171;SDS011;7165;52.388;4.928;2023-11-22T14:14:13;16.85;;;15.18;;
14171;SDS011;7165;52.388;4.928;2023-11-22T14:16:40;15.95;;;14.45;;
14171;SDS011;7165;52.388;4.928;2023-11-22T14:19:11;18.33;;;16.52;;
14171;SDS011;7165;52.388;4.928;2023-11-22T14:21:38;17.15;;;15.43;;
14171;SDS011;7165;52.388;4.928;2023-11-22T14:24:05;16.67;;;14.10;;
14171;SDS011;7165;52.388;4.928;2023-11-22T14:26:33;16.70;;;15.00;;
14171;SDS011;7165;52.388;4.928;2023-11-22T14:29:00;17.17;;;15.48;;
14171;SDS011;7165;52.388;4.928;2023-11-22T14:31:27;16.13;;;14.43;;
14171;SDS011;7165;52.388;4.928;2023-11-22T14:33:54;16.58;;;14.88;;
14171;SDS011;7165;52.388;4.928;2023-11-22T14:36:23;16.35;;;14.75;;
14171;SDS011;7165;52.388;4.928;2023-11-22T14:38:51;15.15;;;13.75;;